Stroby Egede, Denmark
Current Conditions -  °F | °C
As of 4:50 PM on Wednesday 22 Oct 2014 (Local Time) from EKRK Reporting Station
Broken Clouds Broken Clouds  
Wind Chill: 54°   Ceiling: 4500
Heat Index: 54°   Visibility: 6mi
Dew Point: 50°   Wind: 7mph
Humidity: 88%   Direction: 60°ENE
Pressure: 29.83"   Gusts: NA
Location:  55.41°N, 12.25°E
Report Text: EKRK 221450Z AUTO 06006KT 010V090 9999NDV FEW013/// SCT018///BKN045/// 12/10 Q1010
Loading
Personal Weather Stations






























Interactive Weather Map New forecast layout! Learn more

10-Day Weather Forecast

Advertisements
Track Severe Weather on mobile